sensor_id;sensor_type;location;lat;lon;timestamp;pressure;altitude;pressure_sealevel;temperature;humidity
7297;BME280;40758;54.038;11.684;2022-11-20T00:01:45;100763.97;;;0.83;100.00
7297;BME280;40758;54.038;11.684;2022-11-20T00:04:14;100751.53;;;0.85;100.00
7297;BME280;40758;54.038;11.684;2022-11-20T00:06:44;100762.22;;;0.82;100.00
7297;BME280;40758;54.038;11.684;2022-11-20T00:09:15;100765.03;;;0.79;100.00
7297;BME280;40758;54.038;11.684;2022-11-20T00:11:44;100771.94;;;0.81;100.00
7297;BME280;40758;54.038;11.684;2022-11-20T00:14:16;100761.47;;;0.80;100.00
7297;BME280;40758;54.038;11.684;2022-11-20T00:16:45;100765.88;;;0.79;100.00
7297;BME280;40758;54.038;11.684;2022-11-20T00:19:14;100762.75;;;0.70;100.00
7297;BME280;40758;54.038;11.684;2022-11-20T00:21:46;100766.22;;;0.72;100.00
7297;BME280;40758;54.038;11.684;2022-11-20T00:24:17;100768.84;;;0.72;100.00
7297;BME280;40758;54.038;11.684;2022-11-20T00:26:49;100765.53;;;0.67;100.00
7297;BME280;40758;54.038;11.684;2022-11-20T00:29:18;100759.81;;;0.56;100.00
7297;BME280;40758;54.038;11.684;2022-11-20T00:31:54;100764.84;;;0.62;100.00
7297;BME280;40758;54.038;11.684;2022-11-20T00:34:26;100767.44;;;0.63;100.00
7297;BME280;40758;54.038;11.684;2022-11-20T00:36:57;100765.25;;;0.53;100.00
7297;BME280;40758;54.038;11.684;2022-11-20T00:39:29;100763.78;;;0.46;100.00
7297;BME280;40758;54.038;11.684;2022-11-20T00:41:58;100760.28;;;0.45;100.00
7297;BME280;40758;54.038;11.684;2022-11-20T00:44:27;100758.53;;;0.44;100.00
7297;BME280;40758;54.038;11.684;2022-11-20T00:46:56;100760.31;;;0.44;100.00
7297;BME280;40758;54.038;11.684;2022-11-20T00:49:25;100760.56;;;0.37;100.00
7297;BME280;40758;54.038;11.684;2022-11-20T00:51:54;100763.22;;;0.37;100.00
7297;BME280;40758;54.038;11.684;2022-11-20T00:54:25;100758.28;;;0.30;100.00
7297;BME280;40758;54.038;11.684;2022-11-20T00:56:54;100758.28;;;0.30;100.00
7297;BME280;40758;54.038;11.684;2022-11-20T00:59:23;100757.31;;;0.31;100.00
7297;BME280;40758;54.038;11.684;2022-11-20T01:01:52;100760.97;;;0.28;100.00
7297;BME280;40758;54.038;11.684;2022-11-20T01:04:22;100755.03;;;0.23;100.00
7297;BME280;40758;54.038;11.684;2022-11-20T01:06:51;100760.78;;;0.33;100.00
7297;BME280;40758;54.038;11.684;2022-11-20T01:09:22;100765.19;;;0.32;100.00
7297;BME280;40758;54.038;11.684;2022-11-20T01:11:53;100761.78;;;0.30;100.00
7297;BME280;40758;54.038;11.684;2022-11-20T01:14:23;100761.78;;;0.30;100.00
7297;BME280;40758;54.038;11.684;2022-11-20T01:16:53;100766.94;;;0.12;100.00
7297;BME280;40758;54.038;11.684;2022-11-20T01:19:23;100761.09;;;0.04;100.00
7297;BME280;40758;54.038;11.684;2022-11-20T01:21:54;100759.56;;;-0.02;100.00
7297;BME280;40758;54.038;11.684;2022-11-20T01:24:23;100757.94;;;-0.06;100.00
7297;BME280;40758;54.038;11.684;2022-11-20T01:27:05;100764.69;;;0.01;100.00
7297;BME280;40758;54.038;11.684;2022-11-20T01:29:35;100759.50;;;-0.01;100.00
7297;BME280;40758;54.038;11.684;2022-11-20T01:32:07;100759.56;;;-0.02;100.00
7297;BME280;40758;54.038;11.684;2022-11-20T01:34:43;100754.06;;;0.03;100.00
7297;BME280;40758;54.038;11.684;2022-11-20T01:37:16;100755.84;;;0.02;100.00
7297;BME280;40758;54.038;11.684;2022-11-20T01:39:50;100753.03;;;0.07;100.00
7297;BME280;40758;54.038;11.684;2022-11-20T01:42:21;100758.25;;;0.08;100.00
7297;BME280;40758;54.038;11.684;2022-11-20T01:45:42;100752.97;;;0.08;100.00
7297;BME280;40758;54.038;11.684;2022-11-20T01:48:20;100748.56;;;0.09;100.00
7297;BME280;40758;54.038;11.684;2022-11-20T01:50:52;100753.84;;;0.09;100.00
7297;BME280;40758;54.038;11.684;2022-11-20T01:53:29;100749.56;;;0.06;100.00
7297;BME280;40758;54.038;11.684;2022-11-20T01:56:03;100744.13;;;0.09;100.00
7297;BME280;40758;54.038;11.684;2022-11-20T01:58:40;100748.38;;;0.13;100.00
7297;BME280;40758;54.038;11.684;2022-11-20T02:01:14;100747.44;;;0.14;100.00
7297;BME280;40758;54.038;11.684;2022-11-20T02:03:44;100747.34;;;0.17;100.00
7297;BME280;40758;54.038;11.684;2022-11-20T02:06:20;100741.81;;;0.23;100.00
7297;BME280;40758;54.038;11.684;2022-11-20T02:08:51;100743.88;;;0.15;100.00
7297;BME280;40758;54.038;11.684;2022-11-20T02:11:21;100731.84;;;0.08;100.00
7297;BME280;40758;54.038;11.684;2022-11-20T02:13:51;100740.63;;;0.09;100.00
7297;BME280;40758;54.038;11.684;2022-11-20T02:16:24;100738.25;;;0.24;100.00
7297;BME280;40758;54.038;11.684;2022-11-20T02:19:01;100733.38;;;0.14;100.00
7297;BME280;40758;54.038;11.684;2022-11-20T02:21:39;100731.66;;;0.13;100.00
7297;BME280;40758;54.038;11.684;2022-11-20T02:24:14;100740.63;;;0.09;100.00
7297;BME280;40758;54.038;11.684;2022-11-20T02:26:50;100735.03;;;0.16;100.00
7297;BME280;40758;54.038;11.684;2022-11-20T02:29:26;100730.13;;;0.07;100.00
7297;BME280;40758;54.038;11.684;2022-11-20T02:31:58;100719.13;;;-0.04;100.00
7297;BME280;40758;54.038;11.684;2022-11-20T02:34:32;100718.56;;;-0.12;100.00
7297;BME280;40758;54.038;11.684;2022-11-20T02:37:04;100719.66;;;-0.18;100.00
7297;BME280;40758;54.038;11.684;2022-11-20T02:39:35;100721.56;;;-0.21;100.00
7297;BME280;40758;54.038;11.684;2022-11-20T02:42:04;100715.38;;;-0.20;100.00
7297;BME280;40758;54.038;11.684;2022-11-20T02:44:34;100723.97;;;-0.15;100.00
7297;BME280;40758;54.038;11.684;2022-11-20T02:47:03;100720.75;;;0.00;100.00
7297;BME280;40758;54.038;11.684;2022-11-20T02:49:32;100723.50;;;-0.03;100.00
7297;BME280;40758;54.038;11.684;2022-11-20T02:52:01;100717.59;;;-0.10;100.00
7297;BME280;40758;54.038;11.684;2022-11-20T02:54:31;100715.81;;;-0.09;100.00
7297;BME280;40758;54.038;11.684;2022-11-20T02:57:02;100715.50;;;-0.02;100.00
7297;BME280;40758;54.038;11.684;2022-11-20T02:59:58;100721.41;;;0.05;100.00
7297;BME280;40758;54.038;11.684;2022-11-20T03:02:34;100722.38;;;0.03;100.00
7297;BME280;40758;54.038;11.684;2022-11-20T03:05:04;100716.78;;;-0.12;100.00
7297;BME280;40758;54.038;11.684;2022-11-20T03:07:35;100709.84;;;-0.14;100.00
7297;BME280;40758;54.038;11.684;2022-11-20T03:10:06;100715.44;;;-0.22;100.00
7297;BME280;40758;54.038;11.684;2022-11-20T03:12:37;100706.16;;;-0.32;100.00
7297;BME280;40758;54.038;11.684;2022-11-20T03:15:10;100706.41;;;-0.38;100.00
7297;BME280;40758;54.038;11.684;2022-11-20T03:17:44;100705.63;;;-0.42;100.00
7297;BME280;40758;54.038;11.684;2022-11-20T03:20:14;100702.94;;;-0.40;100.00
7297;BME280;40758;54.038;11.684;2022-11-20T03:22:46;100702.94;;;-0.40;100.00
7297;BME280;40758;54.038;11.684;2022-11-20T03:25:15;100698.53;;;-0.39;100.00
7297;BME280;40758;54.038;11.684;2022-11-20T03:27:45;100699.44;;;-0.41;100.00
7297;BME280;40758;54.038;11.684;2022-11-20T03:30:16;100692.09;;;-0.32;100.00
7297;BME280;40758;54.038;11.684;2022-11-20T03:32:46;100698.88;;;-0.25;100.00
7297;BME280;40758;54.038;11.684;2022-11-20T03:35:15;100706.06;;;-0.07;100.00
7297;BME280;40758;54.038;11.684;2022-11-20T03:37:47;100711.25;;;-0.06;100.00
7297;BME280;40758;54.038;11.684;2022-11-20T03:40:24;100710.09;;;-0.20;100.00
7297;BME280;40758;54.038;11.684;2022-11-20T03:42:54;100703.19;;;-0.24;100.00
7297;BME280;40758;54.038;11.684;2022-11-20T03:45:23;100698.16;;;-0.30;100.00
7297;BME280;40758;54.038;11.684;2022-11-20T03:47:52;100696.38;;;-0.30;100.00
7297;BME280;40758;54.038;11.684;2022-11-20T03:50:22;100707.03;;;-0.31;100.00
7297;BME280;40758;54.038;11.684;2022-11-20T03:52:51;100699.78;;;-0.26;100.00
7297;BME280;40758;54.038;11.684;2022-11-20T03:55:20;100693.94;;;-0.34;100.00
7297;BME280;40758;54.038;11.684;2022-11-20T03:57:49;100700.94;;;-0.33;100.00
7297;BME280;40758;54.038;11.684;2022-11-20T04:00:24;100692.41;;;-0.40;100.00
7297;BME280;40758;54.038;11.684;2022-11-20T04:02:53;100691.44;;;-0.37;100.00
7297;BME280;40758;54.038;11.684;2022-11-20T04:05:26;100694.13;;;-0.39;100.00
7297;BME280;40758;54.038;11.684;2022-11-20T04:07:57;100690.56;;;-0.38;100.00
7297;BME280;40758;54.038;11.684;2022-11-20T04:10:26;100688.59;;;-0.33;100.00
7297;BME280;40758;54.038;11.684;2022-11-20T04:13:03;100686.16;;;-0.37;100.00
7297;BME280;40758;54.038;11.684;2022-11-20T04:15:42;100684.41;;;-0.38;100.00
7297;BME280;40758;54.038;11.684;2022-11-20T04:18:14;100686.16;;;-0.37;100.00
7297;BME280;40758;54.038;11.684;2022-11-20T04:20:43;100680.06;;;-0.39;100.00
7297;BME280;40758;54.038;11.684;2022-11-20T04:23:12;100680.16;;;-0.43;100.00
7297;BME280;40758;54.038;11.684;2022-11-20T04:25:41;100681.78;;;-0.38;100.00
7297;BME280;40758;54.038;11.684;2022-11-20T04:28:09;100686.19;;;-0.39;100.00
7297;BME280;40758;54.038;11.684;2022-11-20T04:30:40;100681.88;;;-0.42;100.00
7297;BME280;40758;54.038;11.684;2022-11-20T04:33:09;100680.25;;;-0.44;100.00
7297;BME280;40758;54.038;11.684;2022-11-20T04:35:39;100672.38;;;-0.46;100.00
7297;BME280;40758;54.038;11.684;2022-11-20T04:38:17;100682.94;;;-0.46;100.00
7297;BME280;40758;54.038;11.684;2022-11-20T04:40:49;100674.22;;;-0.48;100.00
7297;BME280;40758;54.038;11.684;2022-11-20T04:43:17;100668.94;;;-0.48;100.00
7297;BME280;40758;54.038;11.684;2022-11-20T04:45:58;100668.00;;;-0.47;100.00
7297;BME280;40758;54.038;11.684;2022-11-20T04:48:30;100670.72;;;-0.48;100.00
7297;BME280;40758;54.038;11.684;2022-11-20T04:51:12;100661.16;;;-0.51;100.00
7297;BME280;40758;54.038;11.684;2022-11-20T04:53:47;100663.66;;;-0.48;100.00
7297;BME280;40758;54.038;11.684;2022-11-20T04:56:19;100657.59;;;-0.50;100.00
7297;BME280;40758;54.038;11.684;2022-11-20T04:58:50;100671.63;;;-0.49;100.00
7297;BME280;40758;54.038;11.684;2022-11-20T05:01:23;100661.94;;;-0.49;100.00
7297;BME280;40758;54.038;11.684;2022-11-20T05:03:56;100659.38;;;-0.50;100.00
7297;BME280;40758;54.038;11.684;2022-11-20T05:06:28;100656.59;;;-0.47;100.00
7297;BME280;40758;54.038;11.684;2022-11-20T05:08:58;100657.59;;;-0.50;100.00
7297;BME280;40758;54.038;11.684;2022-11-20T05:11:27;100647.88;;;-0.49;100.00
7297;BME280;40758;54.038;11.684;2022-11-20T05:13:59;100655.72;;;-0.48;100.00
7297;BME280;40758;54.038;11.684;2022-11-20T05:16:29;100653.22;;;-0.51;100.00
7297;BME280;40758;54.038;11.684;2022-11-20T05:18:58;100660.03;;;-0.45;100.00
7297;BME280;40758;54.038;11.684;2022-11-20T05:21:31;100654.28;;;-0.33;100.00
7297;BME280;40758;54.038;11.684;2022-11-20T05:24:05;100651.34;;;-0.25;100.00
7297;BME280;40758;54.038;11.684;2022-11-20T05:26:39;100649.81;;;-0.31;100.00
7297;BME280;40758;54.038;11.684;2022-11-20T05:29:10;100651.69;;;-0.34;100.00
7297;BME280;40758;54.038;11.684;2022-11-20T05:31:55;100653.47;;;-0.35;100.00
7297;BME280;40758;54.038;11.684;2022-11-20T05:34:35;100654.22;;;-0.31;100.00
7297;BME280;40758;54.038;11.684;2022-11-20T05:37:05;100651.34;;;-0.25;100.00
7297;BME280;40758;54.038;11.684;2022-11-20T05:39:37;100640.22;;;-0.33;100.00
7297;BME280;40758;54.038;11.684;2022-11-20T05:42:06;100641.19;;;-0.36;100.00
7297;BME280;40758;54.038;11.684;2022-11-20T05:44:52;100643.28;;;-0.22;100.00
7297;BME280;40758;54.038;11.684;2022-11-20T05:47:23;100628.75;;;-0.32;100.00
7297;BME280;40758;54.038;11.684;2022-11-20T05:49:55;100626.88;;;-0.30;100.00
7297;BME280;40758;54.038;11.684;2022-11-20T05:52:33;100636.38;;;-0.25;100.00
7297;BME280;40758;54.038;11.684;2022-11-20T05:55:08;100633.72;;;-0.25;100.00
7297;BME280;40758;54.038;11.684;2022-11-20T05:57:37;100620.63;;;-0.28;100.00
7297;BME280;40758;54.038;11.684;2022-11-20T06:00:08;100629.66;;;-0.33;100.00
7297;BME280;40758;54.038;11.684;2022-11-20T06:02:42;100622.59;;;-0.33;100.00
7297;BME280;40758;54.038;11.684;2022-11-20T06:05:10;100626.09;;;-0.32;100.00
7297;BME280;40758;54.038;11.684;2022-11-20T06:07:39;100629.78;;;-0.15;100.00
7297;BME280;40758;54.038;11.684;2022-11-20T06:10:12;100626.38;;;-0.18;100.00
7297;BME280;40758;54.038;11.684;2022-11-20T06:12:41;100627.09;;;-0.13;100.00
7297;BME280;40758;54.038;11.684;2022-11-20T06:15:12;100627.25;;;-0.18;100.00
7297;BME280;40758;54.038;11.684;2022-11-20T06:17:46;100622.78;;;-0.16;100.00
7297;BME280;40758;54.038;11.684;2022-11-20T06:20:15;100628.91;;;-0.15;100.00
7297;BME280;40758;54.038;11.684;2022-11-20T06:22:53;100617.03;;;-0.25;100.00
7297;BME280;40758;54.038;11.684;2022-11-20T06:25:22;100619.09;;;-0.33;100.00
7297;BME280;40758;54.038;11.684;2022-11-20T06:27:51;100626.25;;;-0.37;100.00
7297;BME280;40758;54.038;11.684;2022-11-20T06:30:22;100626.34;;;-0.38;100.00
7297;BME280;40758;54.038;11.684;2022-11-20T06:32:54;100630.63;;;-0.36;100.00
7297;BME280;40758;54.038;11.684;2022-11-20T06:35:24;100624.38;;;-0.33;100.00
7297;BME280;40758;54.038;11.684;2022-11-20T06:38:03;100630.72;;;-0.37;100.00
7297;BME280;40758;54.038;11.684;2022-11-20T06:40:41;100623.75;;;-0.40;100.00
7297;BME280;40758;54.038;11.684;2022-11-20T06:43:11;100626.16;;;-0.34;100.00
7297;BME280;40758;54.038;11.684;2022-11-20T06:46:01;100620.94;;;-0.35;100.00
7297;BME280;40758;54.038;11.684;2022-11-20T06:48:40;100613.22;;;-0.40;100.00
7297;BME280;40758;54.038;11.684;2022-11-20T06:51:13;100618.44;;;-0.38;100.00
7297;BME280;40758;54.038;11.684;2022-11-20T06:54:06;100619.34;;;-0.39;100.00
7297;BME280;40758;54.038;11.684;2022-11-20T06:56:35;100619.34;;;-0.39;100.00
7297;BME280;40758;54.038;11.684;2022-11-20T06:59:05;100622.03;;;-0.41;100.00
7297;BME280;40758;54.038;11.684;2022-11-20T07:01:35;100614.13;;;-0.41;100.00
7297;BME280;40758;54.038;11.684;2022-11-20T07:04:06;100613.16;;;-0.38;100.00
7297;BME280;40758;54.038;11.684;2022-11-20T07:06:43;100616.72;;;-0.39;100.00
7297;BME280;40758;54.038;11.684;2022-11-20T07:09:22;100610.56;;;-0.40;100.00
7297;BME280;40758;54.038;11.684;2022-11-20T07:11:52;100613.25;;;-0.42;100.00
7297;BME280;40758;54.038;11.684;2022-11-20T07:14:21;100608.91;;;-0.43;100.00
7297;BME280;40758;54.038;11.684;2022-11-20T07:16:54;100616.75;;;-0.41;100.00
7297;BME280;40758;54.038;11.684;2022-11-20T07:19:25;100612.47;;;-0.44;100.00
7297;BME280;40758;54.038;11.684;2022-11-20T07:21:53;100614.19;;;-0.43;100.00
7297;BME280;40758;54.038;11.684;2022-11-20T07:24:23;100619.44;;;-0.43;100.00
7297;BME280;40758;54.038;11.684;2022-11-20T07:27:07;100606.25;;;-0.43;100.00
7297;BME280;40758;54.038;11.684;2022-11-20T07:29:37;100607.00;;;-0.39;100.00
7297;BME280;40758;54.038;11.684;2022-11-20T07:32:07;100608.75;;;-0.38;100.00
7297;BME280;40758;54.038;11.684;2022-11-20T07:34:43;100613.69;;;-0.30;100.00
7297;BME280;40758;54.038;11.684;2022-11-20T07:37:13;100610.25;;;-0.32;100.00
7297;BME280;40758;54.038;11.684;2022-11-20T07:39:42;100611.13;;;-0.32;100.00
7297;BME280;40758;54.038;11.684;2022-11-20T07:42:25;100603.94;;;-0.28;100.00
7297;BME280;40758;54.038;11.684;2022-11-20T07:44:56;100602.16;;;-0.28;100.00
7297;BME280;40758;54.038;11.684;2022-11-20T07:47:29;100601.03;;;-0.22;100.00
7297;BME280;40758;54.038;11.684;2022-11-20T07:50:06;100599.00;;;-0.16;100.00
7297;BME280;40758;54.038;11.684;2022-11-20T07:52:37;100600.53;;;-0.10;100.00
7297;BME280;40758;54.038;11.684;2022-11-20T07:55:15;100603.38;;;-0.15;100.00
7297;BME280;40758;54.038;11.684;2022-11-20T07:57:55;100601.53;;;-0.13;100.00
7297;BME280;40758;54.038;11.684;2022-11-20T08:00:27;100596.97;;;-0.09;100.00
7297;BME280;40758;54.038;11.684;2022-11-20T08:02:56;100598.81;;;-0.11;100.00
7297;BME280;40758;54.038;11.684;2022-11-20T08:05:26;100592.41;;;-0.06;100.00
7297;BME280;40758;54.038;11.684;2022-11-20T08:07:55;100590.72;;;-0.07;100.00
7297;BME280;40758;54.038;11.684;2022-11-20T08:10:25;100594.06;;;-0.03;100.00
7297;BME280;40758;54.038;11.684;2022-11-20T08:12:54;100592.34;;;-0.04;100.00
7297;BME280;40758;54.038;11.684;2022-11-20T08:16:06;100594.13;;;-0.05;100.00
7297;BME280;40758;54.038;11.684;2022-11-20T08:18:35;100597.44;;;0.00;100.00
7297;BME280;40758;54.038;11.684;2022-11-20T08:21:14;100600.69;;;0.07;100.00
7297;BME280;40758;54.038;11.684;2022-11-20T08:23:46;100610.22;;;0.11;100.00
7297;BME280;40758;54.038;11.684;2022-11-20T08:26:15;100604.78;;;0.14;100.00
7297;BME280;40758;54.038;11.684;2022-11-20T08:28:44;100599.91;;;0.05;100.00
7297;BME280;40758;54.038;11.684;2022-11-20T08:31:13;100591.53;;;0.16;100.00
7297;BME280;40758;54.038;11.684;2022-11-20T08:33:52;100603.81;;;0.17;100.00
7297;BME280;40758;54.038;11.684;2022-11-20T08:36:37;100600.31;;;0.16;100.00
7297;BME280;40758;54.038;11.684;2022-11-20T08:39:06;100595.41;;;0.27;100.00
7297;BME280;40758;54.038;11.684;2022-11-20T08:41:36;100595.41;;;0.27;100.00
7297;BME280;40758;54.038;11.684;2022-11-20T08:44:08;100600.31;;;0.16;100.00
7297;BME280;40758;54.038;11.684;2022-11-20T08:46:42;100593.97;;;0.20;100.00
7297;BME280;40758;54.038;11.684;2022-11-20T08:49:14;100605.59;;;0.16;100.00
7297;BME280;40758;54.038;11.684;2022-11-20T08:51:46;100601.38;;;0.12;100.00
7297;BME280;40758;54.038;11.684;2022-11-20T08:54:37;100605.44;;;0.19;100.00
7297;BME280;40758;54.038;11.684;2022-11-20T08:57:07;100605.06;;;0.28;100.00
7297;BME280;40758;54.038;11.684;2022-11-20T08:59:39;100593.84;;;0.23;100.00
7297;BME280;40758;54.038;11.684;2022-11-20T09:02:28;100605.03;;;0.08;100.00
7297;BME280;40758;54.038;11.684;2022-11-20T09:04:57;100596.09;;;0.12;100.00
7297;BME280;40758;54.038;11.684;2022-11-20T09:07:30;100600.97;;;0.21;100.00
7297;BME280;40758;54.038;11.684;2022-11-20T09:09:59;100595.41;;;0.27;100.00
7297;BME280;40758;54.038;11.684;2022-11-20T09:12:49;100591.97;;;0.25;100.00
7297;BME280;40758;54.038;11.684;2022-11-20T09:15:20;100585.75;;;0.26;100.00
7297;BME280;40758;54.038;11.684;2022-11-20T09:17:52;100584.31;;;0.39;100.00
7297;BME280;40758;54.038;11.684;2022-11-20T09:20:22;100587.09;;;0.36;100.00
7297;BME280;40758;54.038;11.684;2022-11-20T09:22:53;100577.91;;;0.45;100.00
7297;BME280;40758;54.038;11.684;2022-11-20T09:25:23;100582.31;;;0.45;100.00
7297;BME280;40758;54.038;11.684;2022-11-20T09:27:55;100582.72;;;0.74;100.00
7297;BME280;40758;54.038;11.684;2022-11-20T09:30:25;100587.53;;;0.66;100.00
7297;BME280;40758;54.038;11.684;2022-11-20T09:32:54;100592.13;;;1.00;100.00
7297;BME280;40758;54.038;11.684;2022-11-20T09:35:32;100593.50;;;1.09;100.00
7297;BME280;40758;54.038;11.684;2022-11-20T09:38:13;100584.56;;;1.11;100.00
7297;BME280;40758;54.038;11.684;2022-11-20T09:40:55;100579.53;;;1.05;100.00
7297;BME280;40758;54.038;11.684;2022-11-20T09:43:46;100574.38;;;0.65;100.00
7297;BME280;40758;54.038;11.684;2022-11-20T09:46:28;100571.28;;;0.55;100.00
7297;BME280;40758;54.038;11.684;2022-11-20T09:49:18;100568.16;;;0.66;100.00
7297;BME280;40758;54.038;11.684;2022-11-20T09:52:00;100558.91;;;0.56;100.00
7297;BME280;40758;54.038;11.684;2022-11-20T09:54:38;100555.66;;;0.69;100.00
7297;BME280;40758;54.038;11.684;2022-11-20T09:57:13;100561.41;;;1.16;100.00
7297;BME280;40758;54.038;11.684;2022-11-20T09:59:50;100566.91;;;1.67;100.00
7297;BME280;40758;54.038;11.684;2022-11-20T10:02:42;100561.84;;;2.31;100.00
7297;BME280;40758;54.038;11.684;2022-11-20T10:05:18;100560.22;;;2.46;100.00
7297;BME280;40758;54.038;11.684;2022-11-20T10:07:55;100567.44;;;2.42;100.00
7297;BME280;40758;54.038;11.684;2022-11-20T10:10:34;100578.06;;;2.59;100.00
7297;BME280;40758;54.038;11.684;2022-11-20T10:13:36;100569.66;;;2.34;100.00
7297;BME280;40758;54.038;11.684;2022-11-20T10:16:23;100558.44;;;1.77;100.00
7297;BME280;40758;54.038;11.684;2022-11-20T10:19:11;100552.31;;;1.58;100.00
7297;BME280;40758;54.038;11.684;2022-11-20T10:21:59;100561.03;;;2.63;100.00
7297;BME280;40758;54.038;11.684;2022-11-20T10:24:48;100556.16;;;3.20;100.00
7297;BME280;40758;54.038;11.684;2022-11-20T10:30:55;100555.09;;;5.14;100.00
7297;BME280;40758;54.038;11.684;2022-11-20T10:33:32;100543.19;;;5.20;100.00
7297;BME280;40758;54.038;11.684;2022-11-20T10:36:32;100537.47;;;4.57;100.00
7297;BME280;40758;54.038;11.684;2022-11-20T10:39:07;100528.34;;;4.02;100.00
7297;BME280;40758;54.038;11.684;2022-11-20T10:41:50;100522.56;;;2.88;100.00
7297;BME280;40758;54.038;11.684;2022-11-20T10:44:36;100508.97;;;2.45;100.00
7297;BME280;40758;54.038;11.684;2022-11-20T10:47:28;100508.06;;;2.29;100.00
7297;BME280;40758;54.038;11.684;2022-11-20T10:50:14;100508.22;;;2.26;100.00
7297;BME280;40758;54.038;11.684;2022-11-20T10:53:08;100507.72;;;2.35;100.00
7297;BME280;40758;54.038;11.684;2022-11-20T10:55:54;100515.47;;;2.39;100.00
7297;BME280;40758;54.038;11.684;2022-11-20T10:58:40;100510.38;;;2.35;100.00
7297;BME280;40758;54.038;11.684;2022-11-20T11:01:19;100510.19;;;2.05;100.00
7297;BME280;40758;54.038;11.684;2022-11-20T11:04:01;100504.34;;;2.16;100.00
7297;BME280;40758;54.038;11.684;2022-11-20T11:06:48;100505.59;;;2.09;100.00
7297;BME280;40758;54.038;11.684;2022-11-20T11:09:48;100501.56;;;1.84;100.00
7297;BME280;40758;54.038;11.684;2022-11-20T11:12:28;100504.78;;;2.24;100.00
7297;BME280;40758;54.038;11.684;2022-11-20T11:15:24;100501.59;;;2.34;100.00
7297;BME280;40758;54.038;11.684;2022-11-20T11:17:54;100504.97;;;2.21;100.00
7297;BME280;40758;54.038;11.684;2022-11-20T11:20:26;100503.66;;;2.45;100.00
7297;BME280;40758;54.038;11.684;2022-11-20T11:23:28;100502.41;;;2.52;100.00
7297;BME280;40758;54.038;11.684;2022-11-20T11:26:18;100497.03;;;2.69;100.00
7297;BME280;40758;54.038;11.684;2022-11-20T11:29:03;100496.66;;;2.60;100.00
7297;BME280;40758;54.038;11.684;2022-11-20T11:31:35;100486.91;;;2.44;100.00
7297;BME280;40758;54.038;11.684;2022-11-20T11:34:19;100495.50;;;2.65;100.00
7297;BME280;40758;54.038;11.684;2022-11-20T11:36:58;100491.22;;;2.63;100.00
7297;BME280;40758;54.038;11.684;2022-11-20T11:39:34;100491.28;;;2.61;100.00
7297;BME280;40758;54.038;11.684;2022-11-20T11:42:17;100479.94;;;2.26;100.00
7297;BME280;40758;54.038;11.684;2022-11-20T11:44:52;100480.72;;;2.11;100.00
7297;BME280;40758;54.038;11.684;2022-11-20T11:47:45;100481.47;;;1.97;100.00
7297;BME280;40758;54.038;11.684;2022-11-20T11:50:23;100482.41;;;1.96;100.00
7297;BME280;40758;54.038;11.684;2022-11-20T11:53:08;100476.31;;;1.94;100.00
7297;BME280;40758;54.038;11.684;2022-11-20T11:55:44;100479.34;;;1.87;100.00
7297;BME280;40758;54.038;11.684;2022-11-20T11:58:34;100474.13;;;1.68;100.00
7297;BME280;40758;54.038;11.684;2022-11-20T12:01:29;100478.25;;;1.39;100.00
7297;BME280;40758;54.038;11.684;2022-11-20T12:04:14;100488.13;;;1.36;100.00
7297;BME280;40758;54.038;11.684;2022-11-20T12:06:53;100481.50;;;1.44;100.00
7297;BME280;40758;54.038;11.684;2022-11-20T12:10:04;100478.88;;;1.61;100.00
7297;BME280;40758;54.038;11.684;2022-11-20T12:13:10;100476.00;;;1.66;100.00
7297;BME280;40758;54.038;11.684;2022-11-20T12:15:47;100477.63;;;1.69;100.00
7297;BME280;40758;54.038;11.684;2022-11-20T12:18:21;100480.03;;;1.56;100.00
7297;BME280;40758;54.038;11.684;2022-11-20T12:21:11;100483.94;;;1.83;100.00
7297;BME280;40758;54.038;11.684;2022-11-20T12:27:59;100485.22;;;2.26;100.00
7297;BME280;40758;54.038;11.684;2022-11-20T12:30:38;100486.81;;;2.46;100.00
7297;BME280;40758;54.038;11.684;2022-11-20T12:33:55;100485.22;;;2.59;100.00
7297;BME280;40758;54.038;11.684;2022-11-20T12:36:40;100480.94;;;2.72;100.00
7297;BME280;40758;54.038;11.684;2022-11-20T12:39:34;100481.28;;;2.66;100.00
7297;BME280;40758;54.038;11.684;2022-11-20T12:42:27;100476.56;;;2.56;100.00
7297;BME280;40758;54.038;11.684;2022-11-20T12:46:03;100468.50;;;2.41;100.00
7297;BME280;40758;54.038;11.684;2022-11-20T12:49:14;100473.91;;;2.40;100.00
7297;BME280;40758;54.038;11.684;2022-11-20T12:53:20;100465.97;;;2.23;100.00
7297;BME280;40758;54.038;11.684;2022-11-20T12:55:31;100466.63;;;1.93;100.00
7297;BME280;40758;54.038;11.684;2022-11-20T12:58:13;100468.50;;;2.09;100.00
7297;BME280;40758;54.038;11.684;2022-11-20T13:00:58;100470.28;;;2.41;100.00
7297;BME280;40758;54.038;11.684;2022-11-20T13:03:42;100471.00;;;2.60;100.00
7297;BME280;40758;54.038;11.684;2022-11-20T13:06:19;100469.31;;;2.75;100.00
7297;BME280;40758;54.038;11.684;2022-11-20T13:08:53;100471.09;;;2.90;100.00
7297;BME280;40758;54.038;11.684;2022-11-20T13:11:32;100470.09;;;2.93;100.00
7297;BME280;40758;54.038;11.684;2022-11-20T13:14:35;100465.34;;;2.51;100.00
7297;BME280;40758;54.038;11.684;2022-11-20T13:17:17;100457.19;;;2.38;100.00
7297;BME280;40758;54.038;11.684;2022-11-20T13:19:56;100451.78;;;2.24;100.00
7297;BME280;40758;54.038;11.684;2022-11-20T13:22:48;100457.00;;;2.25;100.00
7297;BME280;40758;54.038;11.684;2022-11-20T13:28:29;100448.53;;;2.19;100.00
7297;BME280;40758;54.038;11.684;2022-11-20T13:31:03;100451.25;;;2.17;100.00
7297;BME280;40758;54.038;11.684;2022-11-20T13:33:34;100449.66;;;1.97;100.00
7297;BME280;40758;54.038;11.684;2022-11-20T13:36:23;100445.72;;;1.72;100.00
7297;BME280;40758;54.038;11.684;2022-11-20T13:38:55;100439.22;;;1.43;100.00
7297;BME280;40758;54.038;11.684;2022-11-20T13:41:28;100433.63;;;1.32;100.00
7297;BME280;40758;54.038;11.684;2022-11-20T13:44:09;100422.66;;;1.22;100.00